Time;durP1;ratioP1;P1;durP2;ratioP2;P2;SDS_P1;SDS_P2;PMS_P1;PMS_P2;Temp;Humidity;BMP_temperature;BMP_pressure;BME280_temperature;BME280_humidity;BME280_pressure;Samples;Min_cycle;Max_cycle;Signal;HPM_P1;HPM_P2
2021/01/04 00:02:17;;;;;;;;;;;1.30;99.90;;;;;;5072155;28;19932;-75
2021/01/04 00:05:02;;;;;;;;;;;1.20;99.90;;;;;;5072056;28;19938;-76
2021/01/04 00:07:42;;;;;;;;;;;1.30;99.90;;;;;;5071833;28;19909;-75
2021/01/04 00:10:31;;;;;;;;;;;1.30;99.90;;;;;;5068234;28;19908;-77
2021/01/04 00:13:22;;;;;;;;;;;1.30;99.90;;;;;;5069286;28;19908;-77
2021/01/04 00:15:53;;;;;;;;;;;1.30;99.90;;;;;;5069114;28;19915;-76
2021/01/04 00:18:37;;;;;;;;;;;1.30;99.90;;;;;;5069408;28;19966;-78
2021/01/04 00:21:23;;;;;;;;;;;1.30;99.90;;;;;;5069705;28;19912;-76
2021/01/04 00:23:48;;;;;;;;;;;1.30;99.90;;;;;;5069357;28;19912;-75
2021/01/04 00:26:22;;;;;;;;;;;1.30;99.90;;;;;;5071425;28;19908;-75
2021/01/04 00:28:47;;;;;;;;;;;1.30;99.90;;;;;;5070740;28;19915;-75
2021/01/04 00:31:13;;;;;;;;;;;1.30;99.90;;;;;;5070662;28;20007;-76
2021/01/04 00:33:38;;;;;;;;;;;1.20;99.90;;;;;;5072007;28;19930;-74
2021/01/04 00:36:06;;;;;;;;;;;1.20;99.90;;;;;;5071394;28;19915;-75
2021/01/04 00:38:49;;;;;;;;;;;1.20;99.90;;;;;;5071816;28;20365;-75
2021/01/04 00:41:20;;;;;;;;;;;1.20;99.90;;;;;;5071907;28;19915;-78
2021/01/04 00:43:54;;;;;;;;;;;1.20;99.90;;;;;;5071882;28;20022;-75
2021/01/04 00:46:21;;;;;;;;;;;1.20;99.90;;;;;;5071403;28;19909;-77
2021/01/04 00:49:13;;;;;;;;;;;1.20;99.90;;;;;;5071784;28;20563;-75
2021/01/04 00:51:47;;;;;;;;;;;1.20;99.90;;;;;;5055521;28;19954;-75
2021/01/04 00:54:22;;;;;;;;;;;1.10;99.90;;;;;;5071727;28;19966;-75
2021/01/04 00:56:53;;;;;;;;;;;1.20;99.90;;;;;;5075396;28;19967;-78
2021/01/04 00:59:24;;;;;;;;;;;1.20;99.90;;;;;;5074520;28;20358;-75
2021/01/04 01:01:56;;;;;;;;;;;1.20;99.90;;;;;;5074500;28;19908;-77
2021/01/04 01:04:23;;;;;;;;;;;1.20;99.90;;;;;;5074496;28;19908;-75
2021/01/04 01:06:49;;;;;;;;;;;1.20;99.90;;;;;;5075362;28;19908;-76
2021/01/04 01:09:14;;;;;;;;;;;1.20;99.90;;;;;;5074193;28;19916;-75
2021/01/04 01:11:46;;;;;;;;;;;1.10;99.90;;;;;;5075536;28;19908;-75
2021/01/04 01:14:25;;;;;;;;;;;1.10;99.90;;;;;;5074256;28;19909;-74
2021/01/04 01:16:57;;;;;;;;;;;1.10;99.90;;;;;;5074968;28;20366;-75
2021/01/04 01:19:27;;;;;;;;;;;1.20;99.90;;;;;;5075379;28;19987;-75
2021/01/04 01:21:53;;;;;;;;;;;1.20;99.90;;;;;;5075306;28;19913;-75
2021/01/04 01:24:19;;;;;;;;;;;1.20;99.90;;;;;;5075333;28;19908;-75
2021/01/04 01:26:44;;;;;;;;;;;1.20;99.90;;;;;;5074971;28;19909;-76
2021/01/04 01:29:25;;;;;;;;;;;1.20;99.90;;;;;;5075106;28;20403;-75
2021/01/04 01:31:51;;;;;;;;;;;1.20;99.90;;;;;;5075185;28;20365;-75
2021/01/04 01:34:22;;;;;;;;;;;1.20;99.90;;;;;;5075134;28;19934;-77
2021/01/04 01:37:06;;;;;;;;;;;1.20;99.90;;;;;;5074793;28;19979;-75
2021/01/04 01:39:50;;;;;;;;;;;1.20;99.90;;;;;;5075026;28;20365;-75
2021/01/04 01:42:21;;;;;;;;;;;1.20;99.90;;;;;;5075001;28;19909;-75
2021/01/04 01:44:59;;;;;;;;;;;1.20;99.90;;;;;;5074973;28;19908;-75
2021/01/04 01:47:31;;;;;;;;;;;1.20;99.90;;;;;;5074603;28;19909;-77
2021/01/04 01:50:09;;;;;;;;;;;1.20;99.90;;;;;;5074702;28;20353;-76
2021/01/04 01:52:38;;;;;;;;;;;1.20;99.90;;;;;;5074817;28;19947;-76
2021/01/04 01:55:12;;;;;;;;;;;1.20;99.90;;;;;;5074652;28;19919;-75
2021/01/04 01:57:49;;;;;;;;;;;1.20;99.90;;;;;;5074526;28;20011;-75
2021/01/04 02:00:32;;;;;;;;;;;1.20;99.90;;;;;;5074786;28;19956;-75
2021/01/04 02:03:01;;;;;;;;;;;1.20;99.90;;;;;;5075064;28;19944;-75
2021/01/04 02:05:45;;;;;;;;;;;1.20;99.90;;;;;;5074605;28;19908;-75
2021/01/04 02:08:12;;;;;;;;;;;1.20;99.90;;;;;;5073510;28;20003;-75
2021/01/04 02:10:43;;;;;;;;;;;1.20;99.90;;;;;;5074522;28;20354;-75
2021/01/04 02:13:28;;;;;;;;;;;1.20;99.90;;;;;;5074462;28;19915;-75
2021/01/04 02:15:56;;;;;;;;;;;1.20;99.90;;;;;;5074006;28;19913;-78
2021/01/04 02:18:30;;;;;;;;;;;1.20;99.90;;;;;;5074142;28;20373;-75
2021/01/04 02:20:59;;;;;;;;;;;1.20;99.90;;;;;;5074316;28;19909;-75
2021/01/04 02:23:45;;;;;;;;;;;1.20;99.90;;;;;;5074352;28;19997;-75
2021/01/04 02:26:14;;;;;;;;;;;1.20;99.90;;;;;;5066293;28;19908;-75
2021/01/04 02:28:46;;;;;;;;;;;1.20;99.90;;;;;;5074005;28;19909;-76
2021/01/04 02:31:12;;;;;;;;;;;1.20;99.90;;;;;;5074052;28;19959;-76
2021/01/04 02:33:37;;;;;;;;;;;1.20;99.90;;;;;;5074104;28;20419;-75
2021/01/04 02:36:03;;;;;;;;;;;1.20;99.90;;;;;;5072508;28;19912;-75
2021/01/04 02:38:32;;;;;;;;;;;1.20;99.90;;;;;;5072572;28;19912;-76
2021/01/04 02:40:57;;;;;;;;;;;1.20;99.90;;;;;;5073830;28;19958;-75
2021/01/04 02:43:23;;;;;;;;;;;1.20;99.90;;;;;;5072695;28;19920;-75
2021/01/04 02:45:48;;;;;;;;;;;1.20;99.90;;;;;;5072244;28;19909;-75
2021/01/04 02:48:20;;;;;;;;;;;1.20;99.90;;;;;;5073680;28;19908;-75
2021/01/04 02:50:51;;;;;;;;;;;1.10;99.90;;;;;;5072456;28;19936;-75
2021/01/04 02:53:35;;;;;;;;;;;1.20;99.90;;;;;;5073643;28;19912;-76
2021/01/04 02:56:19;;;;;;;;;;;1.10;99.90;;;;;;5071843;28;19955;-76
2021/01/04 02:58:56;;;;;;;;;;;1.10;99.90;;;;;;5073730;28;20019;-75
2021/01/04 03:01:25;;;;;;;;;;;1.10;99.90;;;;;;5073498;28;19959;-75
2021/01/04 03:03:50;;;;;;;;;;;1.10;99.90;;;;;;5073406;28;19909;-77
2021/01/04 03:06:18;;;;;;;;;;;1.10;99.90;;;;;;5073030;28;19913;-75
2021/01/04 03:08:44;;;;;;;;;;;1.10;99.90;;;;;;5073316;28;19948;-75
2021/01/04 03:11:13;;;;;;;;;;;1.10;99.90;;;;;;5073455;28;19908;-75
2021/01/04 03:13:38;;;;;;;;;;;1.10;99.90;;;;;;5073275;28;20426;-77
2021/01/04 03:16:10;;;;;;;;;;;1.10;99.90;;;;;;5072795;28;19909;-75
2021/01/04 03:18:39;;;;;;;;;;;1.10;99.90;;;;;;5071582;28;19909;-75
2021/01/04 03:21:05;;;;;;;;;;;1.10;99.90;;;;;;5073077;28;19908;-75
2021/01/04 03:23:30;;;;;;;;;;;1.10;99.90;;;;;;5073119;28;19908;-75
2021/01/04 03:26:01;;;;;;;;;;;1.10;99.90;;;;;;5072759;28;19909;-75
2021/01/04 03:28:28;;;;;;;;;;;1.10;99.90;;;;;;5072962;28;19909;-75
2021/01/04 03:30:54;;;;;;;;;;;1.10;99.90;;;;;;5072792;28;19970;-75
2021/01/04 03:33:19;;;;;;;;;;;1.10;99.90;;;;;;5072849;28;19916;-76
2021/01/04 03:35:45;;;;;;;;;;;1.10;99.90;;;;;;5072517;28;20419;-77
2021/01/04 03:38:11;;;;;;;;;;;1.10;99.90;;;;;;5072573;28;19912;-77
2021/01/04 03:40:38;;;;;;;;;;;1.00;99.90;;;;;;5072805;28;19942;-75
2021/01/04 03:43:03;;;;;;;;;;;1.10;99.90;;;;;;5072666;28;19947;-78
2021/01/04 03:45:28;;;;;;;;;;;1.10;99.90;;;;;;5072520;28;19944;-75
2021/01/04 03:47:54;;;;;;;;;;;1.10;99.90;;;;;;5072187;28;20622;-75
2021/01/04 03:50:20;;;;;;;;;;;1.10;99.90;;;;;;5072476;28;19916;-76
2021/01/04 03:52:45;;;;;;;;;;;1.10;99.90;;;;;;5071202;28;20428;-75
2021/01/04 03:55:11;;;;;;;;;;;1.10;99.90;;;;;;5071177;28;19953;-75
2021/01/04 03:57:37;;;;;;;;;;;1.10;99.90;;;;;;5072098;28;20289;-75
2021/01/04 04:00:06;;;;;;;;;;;1.10;99.90;;;;;;5072395;28;19920;-75
2021/01/04 04:02:31;;;;;;;;;;;1.10;99.90;;;;;;5072305;28;19919;-75
2021/01/04 04:04:57;;;;;;;;;;;1.10;99.90;;;;;;5071056;28;19908;-75
2021/01/04 04:07:22;;;;;;;;;;;1.10;99.90;;;;;;5071888;28;19975;-75
2021/01/04 04:09:48;;;;;;;;;;;1.10;99.90;;;;;;5072209;28;19915;-77
2021/01/04 04:12:13;;;;;;;;;;;1.10;99.90;;;;;;5072196;28;19915;-75
2021/01/04 04:14:39;;;;;;;;;;;1.10;99.90;;;;;;5072642;28;19954;-75
2021/01/04 04:17:04;;;;;;;;;;;1.10;99.90;;;;;;5071722;28;19962;-75
2021/01/04 04:19:30;;;;;;;;;;;1.10;99.90;;;;;;5070625;28;19908;-75
2021/01/04 04:21:55;;;;;;;;;;;1.10;99.90;;;;;;5072139;28;20337;-75
2021/01/04 04:24:21;;;;;;;;;;;1.10;99.90;;;;;;5072025;28;19909;-76
2021/01/04 04:26:47;;;;;;;;;;;1.10;99.90;;;;;;5071680;28;19912;-75
2021/01/04 04:29:13;;;;;;;;;;;1.10;99.90;;;;;;5071441;28;20363;-76
2021/01/04 04:31:42;;;;;;;;;;;1.10;99.90;;;;;;5071753;28;19920;-75
2021/01/04 04:34:07;;;;;;;;;;;1.10;99.90;;;;;;5070677;28;20344;-75
2021/01/04 04:36:33;;;;;;;;;;;1.10;99.90;;;;;;5070214;28;20010;-75
2021/01/04 04:38:58;;;;;;;;;;;1.10;99.90;;;;;;5070595;28;20003;-77
2021/01/04 04:41:34;;;;;;;;;;;1.10;99.90;;;;;;5071823;28;20273;-75
2021/01/04 04:44:04;;;;;;;;;;;1.00;99.90;;;;;;5071784;28;19908;-75
2021/01/04 04:46:30;;;;;;;;;;;1.00;99.90;;;;;;5071495;28;19908;-75
2021/01/04 04:48:57;;;;;;;;;;;0.90;99.90;;;;;;5071827;28;19999;-75
2021/01/04 04:51:41;;;;;;;;;;;0.90;99.90;;;;;;5071730;28;19940;-75
2021/01/04 04:54:25;;;;;;;;;;;0.90;99.90;;;;;;5071845;28;20375;-75
2021/01/04 04:56:56;;;;;;;;;;;0.90;99.90;;;;;;5071384;28;19982;-75
2021/01/04 04:59:37;;;;;;;;;;;0.90;99.90;;;;;;5071651;28;19908;-75
2021/01/04 05:02:12;;;;;;;;;;;0.80;99.90;;;;;;5071728;28;19912;-75
2021/01/04 05:04:37;;;;;;;;;;;0.80;99.90;;;;;;5071616;28;19954;-75
2021/01/04 05:07:08;;;;;;;;;;;0.80;99.90;;;;;;5071230;28;19917;-75
2021/01/04 05:09:34;;;;;;;;;;;0.80;99.90;;;;;;5070198;28;19959;-75
2021/01/04 05:12:05;;;;;;;;;;;0.80;99.90;;;;;;5070364;28;19963;-77
2021/01/04 05:14:32;;;;;;;;;;;0.80;99.90;;;;;;5071548;28;19915;-75
2021/01/04 05:17:17;;;;;;;;;;;0.90;99.90;;;;;;5069786;28;19912;-75
2021/01/04 05:19:49;;;;;;;;;;;0.90;99.90;;;;;;5071555;28;19916;-75
2021/01/04 05:22:14;;;;;;;;;;;0.90;99.90;;;;;;5071522;28;19908;-76
2021/01/04 05:24:46;;;;;;;;;;;1.00;99.90;;;;;;5071548;28;19962;-75
2021/01/04 05:27:17;;;;;;;;;;;1.00;99.90;;;;;;5069782;28;20233;-75
2021/01/04 05:29:50;;;;;;;;;;;1.00;99.90;;;;;;5071024;28;19912;-75
2021/01/04 05:32:25;;;;;;;;;;;1.00;99.90;;;;;;5071379;28;19919;-78
2021/01/04 05:34:52;;;;;;;;;;;0.90;99.90;;;;;;5071358;28;19908;-75
2021/01/04 05:37:37;;;;;;;;;;;0.90;99.90;;;;;;5069614;28;19919;-75
2021/01/04 05:40:05;;;;;;;;;;;1.00;99.90;;;;;;5071320;28;19912;-76
2021/01/04 05:42:40;;;;;;;;;;;0.90;99.90;;;;;;5073048;28;19915;-75
2021/01/04 05:45:05;;;;;;;;;;;1.00;99.90;;;;;;5074980;28;20254;-75
2021/01/04 05:47:33;;;;;;;;;;;1.00;99.90;;;;;;5074556;28;19915;-75
2021/01/04 05:50:06;;;;;;;;;;;1.00;99.90;;;;;;5073590;28;19908;-76
2021/01/04 05:52:33;;;;;;;;;;;1.00;99.90;;;;;;5074724;28;19915;-75
2021/01/04 05:54:58;;;;;;;;;;;1.00;99.90;;;;;;5074666;28;19912;-77
2021/01/04 05:57:23;;;;;;;;;;;1.00;99.90;;;;;;5074306;28;19920;-75
2021/01/04 05:59:49;;;;;;;;;;;1.00;99.90;;;;;;5074666;28;20396;-75
2021/01/04 06:02:28;;;;;;;;;;;1.00;99.90;;;;;;5073385;28;19916;-75
2021/01/04 06:05:04;;;;;;;;;;;1.00;99.90;;;;;;5074692;28;20315;-75
2021/01/04 06:07:33;;;;;;;;;;;1.00;99.90;;;;;;5074029;28;19912;-75
2021/01/04 06:09:58;;;;;;;;;;;1.00;99.90;;;;;;5074506;28;19908;-76
2021/01/04 06:12:31;;;;;;;;;;;1.10;99.90;;;;;;5074434;28;19915;-75
2021/01/04 06:14:58;;;;;;;;;;;1.10;99.90;;;;;;5073279;28;20251;-75
2021/01/04 06:17:43;;;;;;;;;;;1.10;99.90;;;;;;5072596;28;19948;-75
2021/01/04 06:20:21;;;;;;;;;;;1.10;99.90;;;;;;5074388;28;19916;-77
2021/01/04 06:22:48;;;;;;;;;;;1.00;99.90;;;;;;5074383;28;19947;-75
2021/01/04 06:25:15;;;;;;;;;;;1.00;99.90;;;;;;5074360;28;19915;-75
2021/01/04 06:27:42;;;;;;;;;;;1.00;99.90;;;;;;5072475;28;19916;-76
2021/01/04 06:30:24;;;;;;;;;;;1.00;99.90;;;;;;5073977;28;19917;-75
2021/01/04 06:32:50;;;;;;;;;;;1.00;99.90;;;;;;5074186;28;19909;-75
2021/01/04 06:35:26;;;;;;;;;;;1.00;99.90;;;;;;5074104;28;19915;-75
2021/01/04 06:38:02;;;;;;;;;;;1.00;99.90;;;;;;5072223;28;19932;-77
2021/01/04 06:40:27;;;;;;;;;;;0.90;99.90;;;;;;5073870;28;20379;-75
2021/01/04 06:42:54;;;;;;;;;;;0.90;99.90;;;;;;5073957;28;19912;-75
2021/01/04 06:45:25;;;;;;;;;;;0.90;99.90;;;;;;5073823;28;20335;-76
2021/01/04 06:47:54;;;;;;;;;;;0.90;99.90;;;;;;5072244;28;19909;-75
2021/01/04 06:50:28;;;;;;;;;;;1.00;99.90;;;;;;5073899;28;20378;-75
2021/01/04 06:52:56;;;;;;;;;;;0.90;99.90;;;;;;5073344;28;19908;-75
2021/01/04 06:55:37;;;;;;;;;;;1.00;99.90;;;;;;5073613;28;19908;-75
2021/01/04 06:58:29;;;;;;;;;;;1.00;99.90;;;;;;5073623;28;19956;-75
2021/01/04 07:01:01;;;;;;;;;;;1.00;99.90;;;;;;5073645;28;19908;-75
2021/01/04 07:03:29;;;;;;;;;;;1.10;99.90;;;;;;5073373;28;19908;-76
2021/01/04 07:06:00;;;;;;;;;;;1.10;99.90;;;;;;5073453;28;19935;-76
2021/01/04 07:08:44;;;;;;;;;;;1.10;99.90;;;;;;5073345;28;19995;-75
2021/01/04 07:11:24;;;;;;;;;;;1.10;99.90;;;;;;5073420;28;19915;-77
2021/01/04 07:13:53;;;;;;;;;;;1.10;99.90;;;;;;5073340;28;20011;-77
2021/01/04 07:16:37;;;;;;;;;;;1.10;99.90;;;;;;5071644;28;19909;-76
2021/01/04 07:19:21;;;;;;;;;;;1.10;99.90;;;;;;5073114;28;19931;-75
2021/01/04 07:21:50;;;;;;;;;;;1.10;99.90;;;;;;5073092;28;19974;-75
2021/01/04 07:24:16;;;;;;;;;;;1.10;99.90;;;;;;5073118;28;19908;-75
2021/01/04 07:26:56;;;;;;;;;;;1.10;99.90;;;;;;5072698;28;19924;-75
2021/01/04 07:29:30;;;;;;;;;;;1.10;99.90;;;;;;5072865;28;19908;-76
2021/01/04 07:32:03;;;;;;;;;;;1.10;99.90;;;;;;5073113;28;20281;-75
2021/01/04 07:34:32;;;;;;;;;;;1.10;99.90;;;;;;5072918;28;19997;-76
2021/01/04 07:37:16;;;;;;;;;;;1.10;99.90;;;;;;5072397;28;19997;-75
2021/01/04 07:39:51;;;;;;;;;;;1.10;99.90;;;;;;5071417;28;19927;-75
2021/01/04 07:42:35;;;;;;;;;;;1.10;99.90;;;;;;5072840;28;19934;-75
2021/01/04 07:45:19;;;;;;;;;;;1.10;99.90;;;;;;5071307;28;19913;-77
2021/01/04 07:47:53;;;;;;;;;;;1.10;99.90;;;;;;5072215;28;20007;-78
2021/01/04 07:50:46;;;;;;;;;;;1.10;99.90;;;;;;5072659;28;20288;-76
2021/01/04 07:53:30;;;;;;;;;;;1.10;99.90;;;;;;5072659;28;19908;-75
2021/01/04 07:56:08;;;;;;;;;;;1.10;99.90;;;;;;5072481;28;19995;-75
2021/01/04 07:58:36;;;;;;;;;;;1.20;99.90;;;;;;5072229;28;20377;-75
2021/01/04 08:01:04;;;;;;;;;;;1.20;99.90;;;;;;5071153;28;19978;-75
2021/01/04 08:03:30;;;;;;;;;;;1.20;99.90;;;;;;5072469;28;19954;-75
2021/01/04 08:06:02;;;;;;;;;;;1.20;99.90;;;;;;5071251;28;20335;-76
2021/01/04 08:08:30;;;;;;;;;;;1.20;99.90;;;;;;5072154;28;19934;-76
2021/01/04 08:11:14;;;;;;;;;;;1.20;99.90;;;;;;5072439;28;19915;-76
2021/01/04 08:13:58;;;;;;;;;;;1.20;99.90;;;;;;5072145;28;19908;-75
2021/01/04 08:16:27;;;;;;;;;;;1.20;99.90;;;;;;5070418;28;19912;-76
2021/01/04 08:18:55;;;;;;;;;;;1.30;99.90;;;;;;5070812;28;19908;-75
2021/01/04 08:21:47;;;;;;;;;;;1.30;99.90;;;;;;5070884;28;19908;-75
2021/01/04 08:24:12;;;;;;;;;;;1.30;99.90;;;;;;5072301;28;19939;-75
2021/01/04 08:26:59;;;;;;;;;;;1.30;99.90;;;;;;5071761;28;19956;-77
2021/01/04 08:29:24;;;;;;;;;;;1.30;99.90;;;;;;5072152;28;20277;-75
2021/01/04 08:31:56;;;;;;;;;;;1.30;99.90;;;;;;5071868;28;19917;-75
2021/01/04 08:34:22;;;;;;;;;;;1.40;99.90;;;;;;5071996;28;19909;-75
2021/01/04 08:36:50;;;;;;;;;;;1.40;99.90;;;;;;5071497;28;19948;-76
2021/01/04 08:39:22;;;;;;;;;;;1.40;99.90;;;;;;5071920;28;19999;-75
2021/01/04 08:42:02;;;;;;;;;;;1.40;99.90;;;;;;5071888;28;19916;-75
2021/01/04 08:44:29;;;;;;;;;;;1.50;99.90;;;;;;5070666;28;19908;-75
2021/01/04 08:47:05;;;;;;;;;;;1.50;99.90;;;;;;5071614;28;19912;-75
2021/01/04 08:49:39;;;;;;;;;;;1.50;99.90;;;;;;5071817;28;19915;-75
2021/01/04 08:52:12;;;;;;;;;;;1.50;99.90;;;;;;5071793;28;19912;-75
2021/01/04 08:54:38;;;;;;;;;;;1.50;99.90;;;;;;5071782;28;19913;-75
2021/01/04 08:57:03;;;;;;;;;;;1.50;99.90;;;;;;5071603;28;19916;-76
2021/01/04 08:59:32;;;;;;;;;;;1.50;99.90;;;;;;5071749;28;19915;-76
2021/01/04 09:02:00;;;;;;;;;;;1.60;99.90;;;;;;5072194;28;19908;-75
2021/01/04 09:04:28;;;;;;;;;;;1.60;99.90;;;;;;5071616;28;19999;-75
2021/01/04 09:07:03;;;;;;;;;;;1.50;99.90;;;;;;5071365;28;19958;-75
2021/01/04 09:09:33;;;;;;;;;;;1.50;99.90;;;;;;5071684;28;19991;-75
2021/01/04 09:12:04;;;;;;;;;;;1.50;99.90;;;;;;5070301;28;19909;-75
2021/01/04 09:14:35;;;;;;;;;;;1.50;99.90;;;;;;5070343;28;20365;-75
2021/01/04 09:17:11;;;;;;;;;;;1.50;99.90;;;;;;5072636;28;19913;-76
2021/01/04 09:19:38;;;;;;;;;;;1.50;99.90;;;;;;5075114;28;19912;-75
2021/01/04 09:22:19;;;;;;;;;;;1.60;99.90;;;;;;5075328;28;19919;-75
2021/01/04 09:24:45;;;;;;;;;;;1.60;99.90;;;;;;5075170;28;19909;-75
2021/01/04 09:27:19;;;;;;;;;;;1.60;99.90;;;;;;5074716;28;19909;-75
2021/01/04 09:29:46;;;;;;;;;;;1.70;99.90;;;;;;5073545;28;19909;-76
2021/01/04 09:32:14;;;;;;;;;;;1.70;99.90;;;;;;5073611;28;19916;-76
2021/01/04 09:34:39;;;;;;;;;;;1.70;99.90;;;;;;5073750;28;19909;-77
2021/01/04 09:37:05;;;;;;;;;;;1.70;99.90;;;;;;5074512;28;19913;-75
2021/01/04 09:39:32;;;;;;;;;;;1.70;99.90;;;;;;5074858;28;19908;-75
2021/01/04 09:42:02;;;;;;;;;;;1.60;99.90;;;;;;5074515;28;19909;-75
2021/01/04 09:44:28;;;;;;;;;;;1.70;99.90;;;;;;5074479;28;19908;-78
2021/01/04 09:47:00;;;;;;;;;;;1.70;99.90;;;;;;5074136;28;19913;-79
2021/01/04 09:49:30;;;;;;;;;;;1.70;99.90;;;;;;5061254;28;20354;-76
2021/01/04 09:52:01;;;;;;;;;;;1.70;99.90;;;;;;5054867;28;19948;-76
2021/01/04 09:54:31;;;;;;;;;;;1.80;99.90;;;;;;5054123;28;19909;-76
2021/01/04 09:57:00;;;;;;;;;;;1.80;99.90;;;;;;5053970;28;20003;-76
2021/01/04 09:59:26;;;;;;;;;;;1.80;99.90;;;;;;5054107;28;19909;-77
2021/01/04 10:01:54;;;;;;;;;;;1.80;99.90;;;;;;5054215;28;20495;-79
2021/01/04 10:04:38;;;;;;;;;;;1.90;99.90;;;;;;5054205;28;19916;-75
2021/01/04 10:07:05;;;;;;;;;;;1.90;99.90;;;;;;5053758;28;19909;-78
2021/01/04 10:09:33;;;;;;;;;;;1.90;99.90;;;;;;5053969;28;20000;-76
2021/01/04 10:12:01;;;;;;;;;;;1.90;99.90;;;;;;5053776;28;19913;-75
2021/01/04 10:14:27;;;;;;;;;;;2.00;99.90;;;;;;5053937;28;19916;-76
2021/01/04 10:16:54;;;;;;;;;;;2.00;99.90;;;;;;5053313;28;19967;-76
2021/01/04 10:19:25;;;;;;;;;;;2.00;99.90;;;;;;5053696;28;19940;-75
2021/01/04 10:21:51;;;;;;;;;;;2.00;99.90;;;;;;5053980;28;19916;-76
2021/01/04 10:24:22;;;;;;;;;;;2.00;99.90;;;;;;5053899;28;20285;-77
2021/01/04 10:26:49;;;;;;;;;;;2.00;99.90;;;;;;5053135;28;19916;-76
2021/01/04 10:29:24;;;;;;;;;;;2.00;99.90;;;;;;5052848;28;19967;-76
2021/01/04 10:31:51;;;;;;;;;;;1.90;99.90;;;;;;5068537;28;19917;-75
2021/01/04 10:34:19;;;;;;;;;;;1.90;99.90;;;;;;5053573;28;19936;-77
2021/01/04 10:36:59;;;;;;;;;;;1.90;99.90;;;;;;5053024;28;19990;-76
2021/01/04 10:39:34;;;;;;;;;;;1.80;99.90;;;;;;5053866;28;20119;-76
2021/01/04 10:42:07;;;;;;;;;;;1.90;99.90;;;;;;5053785;28;20000;-76
2021/01/04 10:44:33;;;;;;;;;;;1.80;99.90;;;;;;5053335;28;20297;-76
2021/01/04 10:47:02;;;;;;;;;;;1.80;99.90;;;;;;5052940;28;20389;-76
2021/01/04 10:49:28;;;;;;;;;;;1.80;99.90;;;;;;5053073;28;20377;-76
2021/01/04 10:51:55;;;;;;;;;;;1.90;99.90;;;;;;5053215;28;20380;-76
2021/01/04 10:54:40;;;;;;;;;;;1.90;99.90;;;;;;5052950;28;20000;-76
2021/01/04 10:57:12;;;;;;;;;;;1.90;99.90;;;;;;5051977;28;19912;-76
2021/01/04 10:59:53;;;;;;;;;;;1.90;99.90;;;;;;5052936;28;19935;-76
2021/01/04 11:02:18;;;;;;;;;;;1.90;99.90;;;;;;5052923;28;19917;-76
2021/01/04 11:04:49;;;;;;;;;;;1.90;99.90;;;;;;5053280;28;19912;-76
2021/01/04 11:07:18;;;;;;;;;;;2.00;99.90;;;;;;5051304;28;19909;-76
2021/01/04 11:09:44;;;;;;;;;;;2.00;99.90;;;;;;5052037;28;19952;-76
2021/01/04 11:12:23;;;;;;;;;;;2.00;99.90;;;;;;5053325;28;19912;-76
2021/01/04 11:14:56;;;;;;;;;;;2.00;99.90;;;;;;5052050;28;19912;-76
2021/01/04 11:17:33;;;;;;;;;;;2.00;99.90;;;;;;5052916;28;20012;-77
2021/01/04 11:20:08;;;;;;;;;;;2.00;99.90;;;;;;5052181;28;19924;-76
2021/01/04 11:22:33;;;;;;;;;;;2.10;99.90;;;;;;5052649;28;19912;-76
2021/01/04 11:25:00;;;;;;;;;;;2.10;99.90;;;;;;5052381;28;19999;-76
2021/01/04 11:27:25;;;;;;;;;;;2.10;99.90;;;;;;5051244;28;19912;-75
2021/01/04 11:29:51;;;;;;;;;;;2.10;99.90;;;;;;5052878;28;19913;-76
2021/01/04 11:32:18;;;;;;;;;;;2.10;99.90;;;;;;5052901;28;19916;-76
2021/01/04 11:34:45;;;;;;;;;;;2.10;99.90;;;;;;5053000;28;19908;-76
2021/01/04 11:37:11;;;;;;;;;;;2.10;99.90;;;;;;5052465;28;19955;-76
2021/01/04 11:39:37;;;;;;;;;;;2.10;99.90;;;;;;5051528;28;19916;-76
2021/01/04 11:42:03;;;;;;;;;;;2.00;99.90;;;;;;5052755;28;19909;-77
2021/01/04 11:44:29;;;;;;;;;;;2.00;99.90;;;;;;5052720;28;20373;-76
2021/01/04 11:46:54;;;;;;;;;;;1.90;99.90;;;;;;5052241;28;19915;-78
2021/01/04 11:49:20;;;;;;;;;;;2.00;99.90;;;;;;5052277;28;19915;-76
2021/01/04 11:51:48;;;;;;;;;;;2.00;99.90;;;;;;5052603;28;19916;-76
2021/01/04 11:54:14;;;;;;;;;;;1.90;99.90;;;;;;5052468;28;20424;-76
2021/01/04 11:56:39;;;;;;;;;;;1.90;99.90;;;;;;5052069;28;19913;-75
2021/01/04 11:59:05;;;;;;;;;;;1.80;99.90;;;;;;5052420;28;20365;-78
2021/01/04 12:01:33;;;;;;;;;;;1.90;99.90;;;;;;5052377;28;19909;-76
2021/01/04 12:03:59;;;;;;;;;;;1.90;99.90;;;;;;5067776;28;19932;-76
2021/01/04 12:06:24;;;;;;;;;;;1.80;99.90;;;;;;5051991;28;20301;-76
2021/01/04 12:08:50;;;;;;;;;;;1.80;99.90;;;;;;5052171;28;19909;-76
2021/01/04 12:11:15;;;;;;;;;;;1.70;99.90;;;;;;5052205;28;19909;-76
2021/01/04 12:13:41;;;;;;;;;;;1.60;99.90;;;;;;5052287;28;19967;-77
2021/01/04 12:16:06;;;;;;;;;;;1.50;99.90;;;;;;5051711;28;19908;-76
2021/01/04 12:18:32;;;;;;;;;;;1.50;99.90;;;;;;5067356;28;20289;-76
2021/01/04 12:20:57;;;;;;;;;;;1.50;99.90;;;;;;5052133;28;19908;-77
2021/01/04 12:23:23;;;;;;;;;;;1.50;99.90;;;;;;5052051;28;19982;-76
2021/01/04 12:25:48;;;;;;;;;;;1.40;99.90;;;;;;5051746;28;19916;-77
2021/01/04 12:28:14;;;;;;;;;;;1.40;99.90;;;;;;5051905;28;19909;-77
2021/01/04 12:30:39;;;;;;;;;;;1.30;99.90;;;;;;5051752;28;19916;-79
2021/01/04 12:33:05;;;;;;;;;;;1.30;99.90;;;;;;5052015;28;19962;-77
2021/01/04 12:35:31;;;;;;;;;;;1.30;99.90;;;;;;5050312;28;20353;-78
2021/01/04 12:37:56;;;;;;;;;;;1.30;99.90;;;;;;5051421;28;19920;-77
2021/01/04 12:40:30;;;;;;;;;;;1.20;99.90;;;;;;5051916;28;19909;-77
2021/01/04 12:42:57;;;;;;;;;;;1.10;99.90;;;;;;5051905;28;19920;-78
2021/01/04 12:45:23;;;;;;;;;;;1.20;99.90;;;;;;5051698;28;19909;-76
2021/01/04 12:47:49;;;;;;;;;;;1.10;99.90;;;;;;5051333;28;19944;-77
2021/01/04 12:50:14;;;;;;;;;;;1.10;99.90;;;;;;5051658;28;20427;-76
2021/01/04 12:52:40;;;;;;;;;;;1.10;99.90;;;;;;5051566;28;19909;-76
2021/01/04 12:55:06;;;;;;;;;;;1.10;99.90;;;;;;5050236;28;19916;-76
2021/01/04 12:57:31;;;;;;;;;;;1.20;99.90;;;;;;5051103;28;19960;-76
2021/01/04 12:59:57;;;;;;;;;;;1.20;99.90;;;;;;5051385;28;19916;-76
2021/01/04 13:02:23;;;;;;;;;;;1.20;99.90;;;;;;5051713;28;19915;-76
2021/01/04 13:04:48;;;;;;;;;;;1.20;99.90;;;;;;5051433;28;20365;-77
2021/01/04 13:07:14;;;;;;;;;;;1.20;99.90;;;;;;5051248;28;20370;-76
2021/01/04 13:09:40;;;;;;;;;;;1.20;99.90;;;;;;5051313;28;20466;-76
2021/01/04 13:12:06;;;;;;;;;;;1.20;99.90;;;;;;5049935;28;19913;-77
2021/01/04 13:14:32;;;;;;;;;;;1.20;99.90;;;;;;5051229;28;20285;-77
2021/01/04 13:16:58;;;;;;;;;;;1.10;99.90;;;;;;5050967;28;20358;-76
2021/01/04 13:19:28;;;;;;;;;;;1.20;99.90;;;;;;5051195;28;19920;-76
2021/01/04 13:21:57;;;;;;;;;;;1.20;99.90;;;;;;5051289;28;20399;-77
2021/01/04 13:24:22;;;;;;;;;;;1.20;99.90;;;;;;5051248;28;19920;-78
2021/01/04 13:26:49;;;;;;;;;;;1.10;99.90;;;;;;5049505;28;20324;-76
2021/01/04 13:29:16;;;;;;;;;;;1.00;99.90;;;;;;5049831;28;20396;-76
2021/01/04 13:31:41;;;;;;;;;;;1.00;99.90;;;;;;5051058;28;19921;-76
2021/01/04 13:34:07;;;;;;;;;;;1.00;99.90;;;;;;5051047;28;19991;-77
2021/01/04 13:36:33;;;;;;;;;;;1.00;99.90;;;;;;5050729;28;19908;-78
2021/01/04 13:38:58;;;;;;;;;;;0.90;99.90;;;;;;5051146;28;20395;-76
2021/01/04 13:41:24;;;;;;;;;;;0.80;99.90;;;;;;5049674;28;20449;-76
2021/01/04 13:43:49;;;;;;;;;;;0.80;99.90;;;;;;5051029;28;20285;-75
2021/01/04 13:46:19;;;;;;;;;;;0.80;99.90;;;;;;5050699;28;19913;-74
2021/01/04 13:48:44;;;;;;;;;;;0.80;99.90;;;;;;5051044;28;20361;-74
2021/01/04 13:51:10;;;;;;;;;;;0.70;99.90;;;;;;5051096;28;19909;-75
2021/01/04 13:53:35;;;;;;;;;;;0.70;99.90;;;;;;5051255;28;20327;-77
2021/01/04 13:56:00;;;;;;;;;;;0.70;99.90;;;;;;5050593;28;19909;-75
2021/01/04 13:58:27;;;;;;;;;;;0.70;99.90;;;;;;5050984;28;19912;-74
2021/01/04 14:00:52;;;;;;;;;;;0.70;99.90;;;;;;5051168;28;19931;-74
2021/01/04 14:03:18;;;;;;;;;;;0.70;99.90;;;;;;5052490;28;19908;-74
2021/01/04 14:05:43;;;;;;;;;;;0.70;99.90;;;;;;5054240;28;19927;-77
2021/01/04 14:08:09;;;;;;;;;;;0.70;99.90;;;;;;5054888;28;19909;-74
2021/01/04 14:10:34;;;;;;;;;;;0.70;99.90;;;;;;5057072;28;19954;-74
2021/01/04 14:13:00;;;;;;;;;;;0.70;99.90;;;;;;5054564;28;19916;-74
2021/01/04 14:15:25;;;;;;;;;;;0.70;99.90;;;;;;5054342;28;19912;-74
2021/01/04 14:17:51;;;;;;;;;;;0.70;99.90;;;;;;5053900;28;19960;-74
2021/01/04 14:20:16;;;;;;;;;;;0.70;99.90;;;;;;5054252;28;19935;-75
2021/01/04 14:22:42;;;;;;;;;;;0.80;99.90;;;;;;5054301;28;20353;-76
2021/01/04 14:25:08;;;;;;;;;;;0.70;99.90;;;;;;5054216;28;20015;-74
2021/01/04 14:27:34;;;;;;;;;;;0.70;99.90;;;;;;5053794;28;19916;-74
2021/01/04 14:30:00;;;;;;;;;;;0.70;99.90;;;;;;5054037;28;19944;-74
2021/01/04 14:32:26;;;;;;;;;;;0.70;99.90;;;;;;5053970;28;19909;-74
2021/01/04 14:34:52;;;;;;;;;;;0.70;99.90;;;;;;5052676;28;19915;-74
2021/01/04 14:37:19;;;;;;;;;;;0.70;99.90;;;;;;5053617;28;20362;-74
2021/01/04 14:39:45;;;;;;;;;;;0.70;99.90;;;;;;5053785;28;19916;-75
2021/01/04 14:42:15;;;;;;;;;;;0.70;99.90;;;;;;5052702;28;19909;-76
2021/01/04 14:44:40;;;;;;;;;;;0.60;99.90;;;;;;5052434;28;19909;-75
2021/01/04 14:47:07;;;;;;;;;;;0.60;99.90;;;;;;5053498;28;19916;-74
2021/01/04 14:49:32;;;;;;;;;;;0.60;99.90;;;;;;5053727;28;20009;-74